sensor_id;sensor_type;location;lat;lon;timestamp;P1;durP1;ratioP1;P2;durP2;ratioP2
21416;SDS011;10869;52.238;10.716;2022-07-29T03:02:14;4.77;;;1.40;;
21416;SDS011;10869;52.238;10.716;2022-07-29T03:04:41;7.93;;;1.57;;
21416;SDS011;10869;52.238;10.716;2022-07-29T03:07:09;5.77;;;1.73;;
21416;SDS011;10869;52.238;10.716;2022-07-29T03:13:00;8.50;;;1.80;;
21416;SDS011;10869;52.238;10.716;2022-07-29T03:15:27;8.40;;;1.73;;
21416;SDS011;10869;52.238;10.716;2022-07-29T03:17:53;6.33;;;1.70;;
21416;SDS011;10869;52.238;10.716;2022-07-29T03:20:20;7.33;;;1.87;;
21416;SDS011;10869;52.238;10.716;2022-07-29T03:22:46;7.20;;;1.80;;
21416;SDS011;10869;52.238;10.716;2022-07-29T03:25:13;8.03;;;2.10;;
21416;SDS011;10869;52.238;10.716;2022-07-29T03:27:40;7.53;;;2.40;;
21416;SDS011;10869;52.238;10.716;2022-07-29T03:30:07;7.93;;;1.83;;
21416;SDS011;10869;52.238;10.716;2022-07-29T03:32:34;3.77;;;1.40;;
21416;SDS011;10869;52.238;10.716;2022-07-29T03:35:00;7.07;;;1.80;;
21416;SDS011;10869;52.238;10.716;2022-07-29T03:37:26;4.70;;;1.53;;
21416;SDS011;10869;52.238;10.716;2022-07-29T03:39:52;8.73;;;1.77;;
21416;SDS011;10869;52.238;10.716;2022-07-29T03:42:21;8.63;;;1.77;;
21416;SDS011;10869;52.238;10.716;2022-07-29T03:44:53;7.20;;;2.07;;
21416;SDS011;10869;52.238;10.716;2022-07-29T03:47:22;6.73;;;1.70;;
21416;SDS011;10869;52.238;10.716;2022-07-29T03:49:54;7.33;;;1.73;;
21416;SDS011;10869;52.238;10.716;2022-07-29T03:52:24;5.43;;;1.40;;
21416;SDS011;10869;52.238;10.716;2022-07-29T03:54:53;8.43;;;2.57;;
21416;SDS011;10869;52.238;10.716;2022-07-29T03:57:20;6.33;;;1.70;;
21416;SDS011;10869;52.238;10.716;2022-07-29T03:59:50;7.70;;;1.80;;
21416;SDS011;10869;52.238;10.716;2022-07-29T04:02:17;4.93;;;1.90;;
21416;SDS011;10869;52.238;10.716;2022-07-29T04:04:42;6.33;;;2.27;;
21416;SDS011;10869;52.238;10.716;2022-07-29T04:07:11;6.93;;;1.43;;
21416;SDS011;10869;52.238;10.716;2022-07-29T04:09:38;8.10;;;1.80;;
21416;SDS011;10869;52.238;10.716;2022-07-29T04:12:04;8.77;;;2.03;;
21416;SDS011;10869;52.238;10.716;2022-07-29T04:14:33;4.63;;;1.77;;
21416;SDS011;10869;52.238;10.716;2022-07-29T04:17:01;6.07;;;2.20;;
21416;SDS011;10869;52.238;10.716;2022-07-29T04:19:28;8.07;;;2.10;;
21416;SDS011;10869;52.238;10.716;2022-07-29T04:21:54;7.57;;;2.23;;
21416;SDS011;10869;52.238;10.716;2022-07-29T04:24:21;9.57;;;2.00;;
21416;SDS011;10869;52.238;10.716;2022-07-29T04:26:47;7.40;;;1.97;;
21416;SDS011;10869;52.238;10.716;2022-07-29T04:29:15;9.10;;;1.90;;
21416;SDS011;10869;52.238;10.716;2022-07-29T04:34:32;7.03;;;1.80;;
21416;SDS011;10869;52.238;10.716;2022-07-29T04:36:58;5.70;;;1.80;;
21416;SDS011;10869;52.238;10.716;2022-07-29T04:39:24;9.83;;;2.10;;
21416;SDS011;10869;52.238;10.716;2022-07-29T04:41:50;6.80;;;2.03;;
21416;SDS011;10869;52.238;10.716;2022-07-29T04:44:16;6.43;;;2.10;;
21416;SDS011;10869;52.238;10.716;2022-07-29T04:50:04;5.87;;;2.30;;
21416;SDS011;10869;52.238;10.716;2022-07-29T04:55:53;6.80;;;2.23;;
21416;SDS011;10869;52.238;10.716;2022-07-29T04:58:26;13.03;;;2.40;;
21416;SDS011;10869;52.238;10.716;2022-07-29T05:00:52;9.97;;;2.43;;
21416;SDS011;10869;52.238;10.716;2022-07-29T05:03:31;9.53;;;2.83;;
21416;SDS011;10869;52.238;10.716;2022-07-29T05:08:33;8.53;;;2.63;;
21416;SDS011;10869;52.238;10.716;2022-07-29T05:10:59;7.07;;;2.50;;
21416;SDS011;10869;52.238;10.716;2022-07-29T05:13:24;12.03;;;2.57;;
21416;SDS011;10869;52.238;10.716;2022-07-29T05:15:50;7.03;;;2.47;;
21416;SDS011;10869;52.238;10.716;2022-07-29T05:21:01;9.60;;;2.30;;
21416;SDS011;10869;52.238;10.716;2022-07-29T05:23:36;7.43;;;2.30;;
21416;SDS011;10869;52.238;10.716;2022-07-29T05:26:03;9.33;;;2.53;;
21416;SDS011;10869;52.238;10.716;2022-07-29T05:28:32;5.93;;;1.87;;
21416;SDS011;10869;52.238;10.716;2022-07-29T05:31:01;7.90;;;2.20;;
21416;SDS011;10869;52.238;10.716;2022-07-29T05:33:46;8.97;;;2.40;;
21416;SDS011;10869;52.238;10.716;2022-07-29T05:36:12;10.60;;;2.23;;
21416;SDS011;10869;52.238;10.716;2022-07-29T05:38:38;8.67;;;2.67;;
21416;SDS011;10869;52.238;10.716;2022-07-29T05:41:04;9.23;;;2.40;;
21416;SDS011;10869;52.238;10.716;2022-07-29T05:43:30;8.17;;;2.87;;
21416;SDS011;10869;52.238;10.716;2022-07-29T05:45:56;6.83;;;2.20;;
21416;SDS011;10869;52.238;10.716;2022-07-29T05:48:22;9.03;;;2.20;;
21416;SDS011;10869;52.238;10.716;2022-07-29T05:50:49;8.43;;;2.40;;
21416;SDS011;10869;52.238;10.716;2022-07-29T05:53:35;9.53;;;2.33;;
21416;SDS011;10869;52.238;10.716;2022-07-29T05:56:02;9.77;;;2.60;;
21416;SDS011;10869;52.238;10.716;2022-07-29T05:58:29;9.27;;;2.47;;
21416;SDS011;10869;52.238;10.716;2022-07-29T06:00:55;6.93;;;2.60;;
21416;SDS011;10869;52.238;10.716;2022-07-29T06:03:24;7.07;;;2.33;;
21416;SDS011;10869;52.238;10.716;2022-07-29T06:05:50;10.57;;;2.43;;
21416;SDS011;10869;52.238;10.716;2022-07-29T06:08:16;6.93;;;2.40;;
21416;SDS011;10869;52.238;10.716;2022-07-29T06:14:04;11.87;;;2.37;;
21416;SDS011;10869;52.238;10.716;2022-07-29T06:16:29;9.00;;;2.73;;
21416;SDS011;10869;52.238;10.716;2022-07-29T06:18:55;7.87;;;2.57;;
21416;SDS011;10869;52.238;10.716;2022-07-29T06:21:21;7.67;;;2.67;;
21416;SDS011;10869;52.238;10.716;2022-07-29T06:23:47;7.73;;;2.47;;
21416;SDS011;10869;52.238;10.716;2022-07-29T06:26:12;8.30;;;2.70;;
21416;SDS011;10869;52.238;10.716;2022-07-29T06:28:38;7.33;;;2.50;;
21416;SDS011;10869;52.238;10.716;2022-07-29T06:31:05;6.60;;;2.50;;
21416;SDS011;10869;52.238;10.716;2022-07-29T06:33:30;17.20;;;2.93;;
21416;SDS011;10869;52.238;10.716;2022-07-29T06:35:56;9.27;;;2.90;;
21416;SDS011;10869;52.238;10.716;2022-07-29T06:38:22;6.87;;;2.97;;
21416;SDS011;10869;52.238;10.716;2022-07-29T06:40:48;7.47;;;2.87;;
21416;SDS011;10869;52.238;10.716;2022-07-29T06:46:02;6.87;;;2.93;;
21416;SDS011;10869;52.238;10.716;2022-07-29T06:48:32;11.10;;;2.80;;
21416;SDS011;10869;52.238;10.716;2022-07-29T06:50:59;8.57;;;2.77;;
21416;SDS011;10869;52.238;10.716;2022-07-29T06:53:25;9.10;;;2.80;;
21416;SDS011;10869;52.238;10.716;2022-07-29T06:55:51;9.47;;;3.07;;
21416;SDS011;10869;52.238;10.716;2022-07-29T07:03:55;10.93;;;3.90;;
21416;SDS011;10869;52.238;10.716;2022-07-29T07:06:21;9.80;;;3.10;;
21416;SDS011;10869;52.238;10.716;2022-07-29T07:11:58;7.93;;;2.83;;
21416;SDS011;10869;52.238;10.716;2022-07-29T07:14:24;6.50;;;2.77;;
21416;SDS011;10869;52.238;10.716;2022-07-29T07:16:51;7.37;;;2.80;;
21416;SDS011;10869;52.238;10.716;2022-07-29T07:19:17;6.87;;;2.60;;
21416;SDS011;10869;52.238;10.716;2022-07-29T07:21:44;8.67;;;3.47;;
21416;SDS011;10869;52.238;10.716;2022-07-29T07:24:09;11.73;;;3.40;;
21416;SDS011;10869;52.238;10.716;2022-07-29T07:26:35;9.63;;;3.13;;
21416;SDS011;10869;52.238;10.716;2022-07-29T07:29:01;8.67;;;3.10;;
21416;SDS011;10869;52.238;10.716;2022-07-29T07:31:27;11.90;;;3.43;;
21416;SDS011;10869;52.238;10.716;2022-07-29T07:33:52;9.30;;;2.50;;
21416;SDS011;10869;52.238;10.716;2022-07-29T07:36:18;7.87;;;2.47;;
21416;SDS011;10869;52.238;10.716;2022-07-29T07:38:44;6.97;;;2.43;;
21416;SDS011;10869;52.238;10.716;2022-07-29T07:41:10;7.93;;;2.30;;
21416;SDS011;10869;52.238;10.716;2022-07-29T07:43:36;8.17;;;2.73;;
21416;SDS011;10869;52.238;10.716;2022-07-29T07:46:01;7.90;;;2.30;;
21416;SDS011;10869;52.238;10.716;2022-07-29T07:48:27;10.23;;;2.70;;
21416;SDS011;10869;52.238;10.716;2022-07-29T07:51:06;10.33;;;2.73;;
21416;SDS011;10869;52.238;10.716;2022-07-29T07:53:32;8.10;;;2.60;;
21416;SDS011;10869;52.238;10.716;2022-07-29T07:55:58;9.37;;;3.10;;
21416;SDS011;10869;52.238;10.716;2022-07-29T07:58:24;8.00;;;2.27;;
21416;SDS011;10869;52.238;10.716;2022-07-29T08:00:50;8.20;;;2.63;;
21416;SDS011;10869;52.238;10.716;2022-07-29T08:03:19;11.43;;;2.90;;
21416;SDS011;10869;52.238;10.716;2022-07-29T08:05:44;6.27;;;2.77;;
21416;SDS011;10869;52.238;10.716;2022-07-29T08:08:11;7.37;;;2.63;;
21416;SDS011;10869;52.238;10.716;2022-07-29T08:10:37;9.40;;;2.87;;
21416;SDS011;10869;52.238;10.716;2022-07-29T08:13:18;20.20;;;3.30;;
21416;SDS011;10869;52.238;10.716;2022-07-29T08:21:26;16.57;;;3.30;;
21416;SDS011;10869;52.238;10.716;2022-07-29T08:23:52;10.40;;;3.20;;
21416;SDS011;10869;52.238;10.716;2022-07-29T08:26:21;10.90;;;2.83;;
21416;SDS011;10869;52.238;10.716;2022-07-29T08:28:47;8.40;;;2.60;;
21416;SDS011;10869;52.238;10.716;2022-07-29T08:31:22;11.37;;;2.50;;
21416;SDS011;10869;52.238;10.716;2022-07-29T08:34:25;8.30;;;2.27;;
21416;SDS011;10869;52.238;10.716;2022-07-29T08:36:51;10.93;;;3.17;;
21416;SDS011;10869;52.238;10.716;2022-07-29T08:47:20;6.87;;;2.87;;
21416;SDS011;10869;52.238;10.716;2022-07-29T08:52:46;14.03;;;2.60;;
21416;SDS011;10869;52.238;10.716;2022-07-29T08:55:14;11.17;;;2.77;;
21416;SDS011;10869;52.238;10.716;2022-07-29T08:57:50;7.07;;;2.87;;
21416;SDS011;10869;52.238;10.716;2022-07-29T09:03:29;7.67;;;2.40;;
21416;SDS011;10869;52.238;10.716;2022-07-29T09:05:56;11.30;;;2.63;;
21416;SDS011;10869;52.238;10.716;2022-07-29T09:08:26;7.93;;;2.17;;
21416;SDS011;10869;52.238;10.716;2022-07-29T09:10:54;7.87;;;2.33;;
21416;SDS011;10869;52.238;10.716;2022-07-29T09:13:25;10.07;;;2.83;;
21416;SDS011;10869;52.238;10.716;2022-07-29T09:15:50;9.93;;;2.97;;
21416;SDS011;10869;52.238;10.716;2022-07-29T09:21:14;7.57;;;2.40;;
21416;SDS011;10869;52.238;10.716;2022-07-29T09:24:00;9.33;;;2.30;;
21416;SDS011;10869;52.238;10.716;2022-07-29T09:26:45;10.67;;;2.50;;
21416;SDS011;10869;52.238;10.716;2022-07-29T09:44:44;7.85;;;2.60;;
21416;SDS011;10869;52.238;10.716;2022-07-29T09:47:11;6.03;;;2.33;;
21416;SDS011;10869;52.238;10.716;2022-07-29T09:52:59;9.30;;;2.80;;
21416;SDS011;10869;52.238;10.716;2022-07-29T09:58:47;8.52;;;2.50;;
21416;SDS011;10869;52.238;10.716;2022-07-29T10:01:13;5.93;;;2.08;;
21416;SDS011;10869;52.238;10.716;2022-07-29T10:03:52;6.97;;;2.90;;
21416;SDS011;10869;52.238;10.716;2022-07-29T10:06:18;9.13;;;2.33;;
21416;SDS011;10869;52.238;10.716;2022-07-29T10:08:44;5.90;;;1.90;;
21416;SDS011;10869;52.238;10.716;2022-07-29T10:11:16;5.65;;;2.33;;
21416;SDS011;10869;52.238;10.716;2022-07-29T10:13:44;12.20;;;2.75;;
21416;SDS011;10869;52.238;10.716;2022-07-29T10:16:12;7.47;;;2.80;;
21416;SDS011;10869;52.238;10.716;2022-07-29T10:18:39;11.33;;;2.40;;
21416;SDS011;10869;52.238;10.716;2022-07-29T10:21:08;11.33;;;2.73;;
21416;SDS011;10869;52.238;10.716;2022-07-29T10:23:35;10.03;;;2.60;;
21416;SDS011;10869;52.238;10.716;2022-07-29T10:26:03;7.53;;;2.63;;
21416;SDS011;10869;52.238;10.716;2022-07-29T10:28:30;8.83;;;2.70;;
21416;SDS011;10869;52.238;10.716;2022-07-29T10:31:02;6.77;;;2.27;;
21416;SDS011;10869;52.238;10.716;2022-07-29T10:33:37;12.57;;;2.63;;
21416;SDS011;10869;52.238;10.716;2022-07-29T10:42:21;11.27;;;2.30;;
21416;SDS011;10869;52.238;10.716;2022-07-29T10:44:50;9.13;;;2.47;;
21416;SDS011;10869;52.238;10.716;2022-07-29T10:50:00;16.43;;;3.23;;
21416;SDS011;10869;52.238;10.716;2022-07-29T10:55:38;11.07;;;2.47;;
21416;SDS011;10869;52.238;10.716;2022-07-29T10:58:13;8.97;;;2.83;;
21416;SDS011;10869;52.238;10.716;2022-07-29T11:00:43;8.70;;;2.60;;
21416;SDS011;10869;52.238;10.716;2022-07-29T11:06:20;7.00;;;2.60;;
21416;SDS011;10869;52.238;10.716;2022-07-29T11:08:49;8.50;;;2.70;;
21416;SDS011;10869;52.238;10.716;2022-07-29T11:11:54;11.70;;;2.57;;
21416;SDS011;10869;52.238;10.716;2022-07-29T11:17:20;10.30;;;3.00;;
21416;SDS011;10869;52.238;10.716;2022-07-29T11:19:46;11.90;;;3.60;;
21416;SDS011;10869;52.238;10.716;2022-07-29T11:22:38;7.23;;;3.07;;
21416;SDS011;10869;52.238;10.716;2022-07-29T11:25:14;12.20;;;3.30;;
21416;SDS011;10869;52.238;10.716;2022-07-29T11:27:41;9.90;;;2.77;;
21416;SDS011;10869;52.238;10.716;2022-07-29T11:30:07;11.07;;;3.53;;
21416;SDS011;10869;52.238;10.716;2022-07-29T11:32:41;13.17;;;3.30;;
21416;SDS011;10869;52.238;10.716;2022-07-29T11:35:19;6.33;;;3.00;;
21416;SDS011;10869;52.238;10.716;2022-07-29T11:44:16;8.83;;;2.60;;
21416;SDS011;10869;52.238;10.716;2022-07-29T11:46:49;11.70;;;2.90;;
21416;SDS011;10869;52.238;10.716;2022-07-29T11:49:22;8.57;;;3.20;;
21416;SDS011;10869;52.238;10.716;2022-07-29T11:51:50;9.63;;;2.80;;
21416;SDS011;10869;52.238;10.716;2022-07-29T11:57:49;5.97;;;2.70;;
21416;SDS011;10869;52.238;10.716;2022-07-29T12:03:05;7.13;;;2.40;;
21416;SDS011;10869;52.238;10.716;2022-07-29T12:08:54;10.07;;;3.20;;
21416;SDS011;10869;52.238;10.716;2022-07-29T12:11:20;5.97;;;2.63;;
21416;SDS011;10869;52.238;10.716;2022-07-29T12:13:46;9.77;;;3.00;;
21416;SDS011;10869;52.238;10.716;2022-07-29T12:19:41;7.70;;;3.07;;
21416;SDS011;10869;52.238;10.716;2022-07-29T12:22:08;11.77;;;3.30;;
21416;SDS011;10869;52.238;10.716;2022-07-29T12:24:43;9.47;;;2.47;;
21416;SDS011;10869;52.238;10.716;2022-07-29T12:30:35;10.90;;;3.07;;
21416;SDS011;10869;52.238;10.716;2022-07-29T12:33:26;10.27;;;2.90;;
21416;SDS011;10869;52.238;10.716;2022-07-29T12:35:57;7.80;;;2.93;;
21416;SDS011;10869;52.238;10.716;2022-07-29T12:38:24;6.50;;;2.20;;
21416;SDS011;10869;52.238;10.716;2022-07-29T12:40:51;9.23;;;3.00;;
21416;SDS011;10869;52.238;10.716;2022-07-29T12:43:19;9.30;;;2.93;;
21416;SDS011;10869;52.238;10.716;2022-07-29T12:45:47;8.77;;;2.93;;
21416;SDS011;10869;52.238;10.716;2022-07-29T12:48:15;7.27;;;2.93;;
21416;SDS011;10869;52.238;10.716;2022-07-29T12:50:51;8.93;;;3.07;;
21416;SDS011;10869;52.238;10.716;2022-07-29T12:53:22;10.00;;;2.90;;
21416;SDS011;10869;52.238;10.716;2022-07-29T12:55:52;7.07;;;2.70;;
21416;SDS011;10869;52.238;10.716;2022-07-29T12:58:52;8.17;;;2.80;;
21416;SDS011;10869;52.238;10.716;2022-07-29T13:01:12;9.23;;;2.90;;
21416;SDS011;10869;52.238;10.716;2022-07-29T13:03:48;7.93;;;2.80;;
21416;SDS011;10869;52.238;10.716;2022-07-29T13:06:27;6.10;;;2.60;;
21416;SDS011;10869;52.238;10.716;2022-07-29T13:12:17;6.40;;;2.90;;
21416;SDS011;10869;52.238;10.716;2022-07-29T13:14:44;6.67;;;2.57;;
21416;SDS011;10869;52.238;10.716;2022-07-29T13:19:48;11.17;;;2.67;;
21416;SDS011;10869;52.238;10.716;2022-07-29T13:22:16;11.73;;;3.00;;
21416;SDS011;10869;52.238;10.716;2022-07-29T13:24:59;4.83;;;2.37;;
21416;SDS011;10869;52.238;10.716;2022-07-29T13:27:32;12.57;;;2.93;;
21416;SDS011;10869;52.238;10.716;2022-07-29T13:29:59;8.53;;;2.43;;
21416;SDS011;10869;52.238;10.716;2022-07-29T13:32:26;5.37;;;2.53;;
21416;SDS011;10869;52.238;10.716;2022-07-29T13:34:58;10.93;;;2.90;;
21416;SDS011;10869;52.238;10.716;2022-07-29T13:37:28;6.43;;;2.70;;
21416;SDS011;10869;52.238;10.716;2022-07-29T13:39:55;7.43;;;2.40;;
21416;SDS011;10869;52.238;10.716;2022-07-29T13:42:24;6.57;;;2.37;;
21416;SDS011;10869;52.238;10.716;2022-07-29T13:44:51;7.00;;;2.57;;
21416;SDS011;10869;52.238;10.716;2022-07-29T13:47:17;5.83;;;2.60;;
21416;SDS011;10869;52.238;10.716;2022-07-29T13:49:43;8.60;;;2.83;;
21416;SDS011;10869;52.238;10.716;2022-07-29T13:52:09;9.40;;;2.93;;
21416;SDS011;10869;52.238;10.716;2022-07-29T13:54:35;7.47;;;2.60;;
21416;SDS011;10869;52.238;10.716;2022-07-29T13:57:02;11.83;;;2.80;;
21416;SDS011;10869;52.238;10.716;2022-07-29T13:59:29;8.37;;;2.90;;
21416;SDS011;10869;52.238;10.716;2022-07-29T14:01:55;6.77;;;2.60;;
21416;SDS011;10869;52.238;10.716;2022-07-29T14:09:31;9.43;;;2.90;;
21416;SDS011;10869;52.238;10.716;2022-07-29T14:11:57;9.87;;;2.77;;
21416;SDS011;10869;52.238;10.716;2022-07-29T14:14:23;6.70;;;2.87;;
21416;SDS011;10869;52.238;10.716;2022-07-29T14:16:49;11.87;;;2.73;;
21416;SDS011;10869;52.238;10.716;2022-07-29T14:19:14;8.73;;;2.97;;
21416;SDS011;10869;52.238;10.716;2022-07-29T14:25:02;6.80;;;2.40;;
21416;SDS011;10869;52.238;10.716;2022-07-29T14:27:28;5.63;;;2.60;;
21416;SDS011;10869;52.238;10.716;2022-07-29T14:29:54;7.63;;;2.90;;
21416;SDS011;10869;52.238;10.716;2022-07-29T14:32:20;10.40;;;2.73;;
21416;SDS011;10869;52.238;10.716;2022-07-29T14:34:46;6.33;;;2.70;;
21416;SDS011;10869;52.238;10.716;2022-07-29T14:37:12;7.53;;;2.50;;
21416;SDS011;10869;52.238;10.716;2022-07-29T14:42:59;10.37;;;2.80;;
21416;SDS011;10869;52.238;10.716;2022-07-29T14:45:26;7.23;;;2.80;;
21416;SDS011;10869;52.238;10.716;2022-07-29T14:51:15;10.73;;;2.30;;
21416;SDS011;10869;52.238;10.716;2022-07-29T14:53:40;10.57;;;2.60;;
21416;SDS011;10869;52.238;10.716;2022-07-29T14:56:06;7.47;;;2.60;;
21416;SDS011;10869;52.238;10.716;2022-07-29T15:01:54;7.87;;;2.60;;
21416;SDS011;10869;52.238;10.716;2022-07-29T15:04:20;6.93;;;2.27;;
21416;SDS011;10869;52.238;10.716;2022-07-29T15:06:45;5.07;;;1.90;;
21416;SDS011;10869;52.238;10.716;2022-07-29T15:12:33;7.17;;;2.27;;
21416;SDS011;10869;52.238;10.716;2022-07-29T15:18:21;15.43;;;2.77;;
21416;SDS011;10869;52.238;10.716;2022-07-29T15:20:46;8.57;;;2.30;;
21416;SDS011;10869;52.238;10.716;2022-07-29T15:23:12;8.13;;;2.40;;
21416;SDS011;10869;52.238;10.716;2022-07-29T15:25:38;9.33;;;2.33;;
21416;SDS011;10869;52.238;10.716;2022-07-29T15:28:04;7.50;;;2.53;;
21416;SDS011;10869;52.238;10.716;2022-07-29T15:30:34;13.40;;;2.57;;
21416;SDS011;10869;52.238;10.716;2022-07-29T15:33:05;10.00;;;2.83;;
21416;SDS011;10869;52.238;10.716;2022-07-29T15:35:31;12.83;;;2.83;;
21416;SDS011;10869;52.238;10.716;2022-07-29T15:37:57;8.43;;;2.30;;
21416;SDS011;10869;52.238;10.716;2022-07-29T15:40:23;13.03;;;3.13;;
21416;SDS011;10869;52.238;10.716;2022-07-29T15:42:49;13.90;;;2.97;;
21416;SDS011;10869;52.238;10.716;2022-07-29T15:45:14;8.30;;;2.40;;
21416;SDS011;10869;52.238;10.716;2022-07-29T15:47:40;15.43;;;2.70;;
21416;SDS011;10869;52.238;10.716;2022-07-29T15:50:06;16.73;;;2.33;;
21416;SDS011;10869;52.238;10.716;2022-07-29T15:58:55;9.63;;;2.40;;
21416;SDS011;10869;52.238;10.716;2022-07-29T16:01:21;6.03;;;2.77;;
21416;SDS011;10869;52.238;10.716;2022-07-29T16:03:48;5.23;;;1.90;;
21416;SDS011;10869;52.238;10.716;2022-07-29T16:06:32;9.70;;;2.33;;
21416;SDS011;10869;52.238;10.716;2022-07-29T16:08:58;11.53;;;2.53;;
21416;SDS011;10869;52.238;10.716;2022-07-29T16:14:43;8.33;;;2.50;;
21416;SDS011;10869;52.238;10.716;2022-07-29T16:20:30;18.47;;;3.00;;
21416;SDS011;10869;52.238;10.716;2022-07-29T16:26:18;20.90;;;3.03;;
21416;SDS011;10869;52.238;10.716;2022-07-29T16:34:56;32.70;;;4.00;;
21416;SDS011;10869;52.238;10.716;2022-07-29T16:40:36;26.00;;;3.97;;
21416;SDS011;10869;52.238;10.716;2022-07-29T16:45:47;18.47;;;3.17;;
21416;SDS011;10869;52.238;10.716;2022-07-29T16:51:33;13.07;;;2.90;;
21416;SDS011;10869;52.238;10.716;2022-07-29T16:53:58;9.43;;;2.30;;
21416;SDS011;10869;52.238;10.716;2022-07-29T16:56:24;17.47;;;3.23;;
21416;SDS011;10869;52.238;10.716;2022-07-29T16:58:50;15.53;;;2.97;;
21416;SDS011;10869;52.238;10.716;2022-07-29T17:07:14;8.10;;;2.30;;
21416;SDS011;10869;52.238;10.716;2022-07-29T17:09:40;7.10;;;2.00;;
21416;SDS011;10869;52.238;10.716;2022-07-29T17:12:06;6.23;;;2.17;;
21416;SDS011;10869;52.238;10.716;2022-07-29T17:14:32;5.87;;;2.03;;
21416;SDS011;10869;52.238;10.716;2022-07-29T17:16:58;7.07;;;2.07;;
21416;SDS011;10869;52.238;10.716;2022-07-29T17:19:25;7.63;;;2.00;;
21416;SDS011;10869;52.238;10.716;2022-07-29T17:21:54;8.40;;;2.30;;
21416;SDS011;10869;52.238;10.716;2022-07-29T17:24:19;10.43;;;2.40;;
21416;SDS011;10869;52.238;10.716;2022-07-29T17:26:45;6.63;;;2.17;;
21416;SDS011;10869;52.238;10.716;2022-07-29T17:29:11;6.37;;;2.10;;
21416;SDS011;10869;52.238;10.716;2022-07-29T17:31:41;6.23;;;2.00;;
21416;SDS011;10869;52.238;10.716;2022-07-29T17:34:07;6.57;;;1.83;;
21416;SDS011;10869;52.238;10.716;2022-07-29T17:36:33;12.33;;;2.40;;
21416;SDS011;10869;52.238;10.716;2022-07-29T17:42:12;10.33;;;2.40;;
21416;SDS011;10869;52.238;10.716;2022-07-29T17:47:15;14.07;;;2.20;;
21416;SDS011;10869;52.238;10.716;2022-07-29T17:53:02;8.40;;;2.30;;
21416;SDS011;10869;52.238;10.716;2022-07-29T18:01:19;8.70;;;2.40;;
21416;SDS011;10869;52.238;10.716;2022-07-29T18:03:47;7.77;;;2.00;;
21416;SDS011;10869;52.238;10.716;2022-07-29T18:08:46;5.00;;;1.87;;
21416;SDS011;10869;52.238;10.716;2022-07-29T18:11:12;5.70;;;2.00;;
21416;SDS011;10869;52.238;10.716;2022-07-29T18:13:54;10.20;;;2.20;;
21416;SDS011;10869;52.238;10.716;2022-07-29T18:16:20;9.43;;;2.13;;
21416;SDS011;10869;52.238;10.716;2022-07-29T18:18:45;7.27;;;2.00;;
21416;SDS011;10869;52.238;10.716;2022-07-29T18:21:11;5.67;;;2.10;;
21416;SDS011;10869;52.238;10.716;2022-07-29T18:23:37;5.90;;;2.00;;
21416;SDS011;10869;52.238;10.716;2022-07-29T18:26:03;12.27;;;2.50;;
21416;SDS011;10869;52.238;10.716;2022-07-29T18:28:32;6.17;;;2.67;;
21416;SDS011;10869;52.238;10.716;2022-07-29T18:31:01;6.93;;;2.00;;
21416;SDS011;10869;52.238;10.716;2022-07-29T18:33:27;6.83;;;2.17;;
21416;SDS011;10869;52.238;10.716;2022-07-29T18:35:53;10.60;;;2.00;;
21416;SDS011;10869;52.238;10.716;2022-07-29T18:38:22;5.67;;;1.80;;
21416;SDS011;10869;52.238;10.716;2022-07-29T18:40:48;11.07;;;2.70;;
21416;SDS011;10869;52.238;10.716;2022-07-29T18:43:16;5.83;;;2.23;;
21416;SDS011;10869;52.238;10.716;2022-07-29T18:45:45;7.33;;;1.90;;
21416;SDS011;10869;52.238;10.716;2022-07-29T18:48:12;7.77;;;2.00;;
21416;SDS011;10869;52.238;10.716;2022-07-29T18:50:48;7.03;;;2.13;;
21416;SDS011;10869;52.238;10.716;2022-07-29T18:53:14;7.53;;;2.20;;
21416;SDS011;10869;52.238;10.716;2022-07-29T18:55:43;6.73;;;1.97;;
21416;SDS011;10869;52.238;10.716;2022-07-29T18:58:11;5.93;;;2.23;;
21416;SDS011;10869;52.238;10.716;2022-07-29T19:00:40;9.80;;;2.50;;
21416;SDS011;10869;52.238;10.716;2022-07-29T19:03:05;5.87;;;2.00;;
21416;SDS011;10869;52.238;10.716;2022-07-29T19:05:34;4.77;;;2.20;;
21416;SDS011;10869;52.238;10.716;2022-07-29T19:08:00;7.60;;;2.40;;
21416;SDS011;10869;52.238;10.716;2022-07-29T19:10:26;5.77;;;1.70;;
21416;SDS011;10869;52.238;10.716;2022-07-29T19:12:54;9.13;;;2.13;;
21416;SDS011;10869;52.238;10.716;2022-07-29T19:15:20;7.00;;;2.13;;
21416;SDS011;10869;52.238;10.716;2022-07-29T19:18:03;5.37;;;1.90;;
21416;SDS011;10869;52.238;10.716;2022-07-29T19:23:51;5.07;;;1.97;;
21416;SDS011;10869;52.238;10.716;2022-07-29T19:26:20;4.93;;;2.07;;
21416;SDS011;10869;52.238;10.716;2022-07-29T19:28:49;7.90;;;2.23;;
21416;SDS011;10869;52.238;10.716;2022-07-29T19:31:37;9.40;;;1.80;;
21416;SDS011;10869;52.238;10.716;2022-07-29T19:34:26;4.20;;;2.00;;
21416;SDS011;10869;52.238;10.716;2022-07-29T19:36:52;5.37;;;1.97;;
21416;SDS011;10869;52.238;10.716;2022-07-29T19:39:18;8.27;;;2.40;;
21416;SDS011;10869;52.238;10.716;2022-07-29T19:41:44;7.57;;;2.10;;
21416;SDS011;10869;52.238;10.716;2022-07-29T19:44:12;5.63;;;1.67;;
21416;SDS011;10869;52.238;10.716;2022-07-29T19:46:41;4.33;;;1.90;;
21416;SDS011;10869;52.238;10.716;2022-07-29T19:49:10;8.40;;;2.20;;
21416;SDS011;10869;52.238;10.716;2022-07-29T19:51:40;6.30;;;2.20;;
21416;SDS011;10869;52.238;10.716;2022-07-29T19:56:39;6.80;;;1.97;;
21416;SDS011;10869;52.238;10.716;2022-07-29T19:59:05;4.87;;;1.90;;
21416;SDS011;10869;52.238;10.716;2022-07-29T20:01:31;6.97;;;2.60;;
21416;SDS011;10869;52.238;10.716;2022-07-29T20:03:58;9.10;;;2.20;;
21416;SDS011;10869;52.238;10.716;2022-07-29T20:06:24;9.83;;;2.53;;
21416;SDS011;10869;52.238;10.716;2022-07-29T20:08:54;7.97;;;2.37;;
21416;SDS011;10869;52.238;10.716;2022-07-29T20:11:23;6.77;;;2.10;;
21416;SDS011;10869;52.238;10.716;2022-07-29T20:13:51;7.30;;;2.30;;
21416;SDS011;10869;52.238;10.716;2022-07-29T20:16:23;4.80;;;2.00;;
21416;SDS011;10869;52.238;10.716;2022-07-29T20:18:52;7.43;;;2.50;;
21416;SDS011;10869;52.238;10.716;2022-07-29T20:21:21;5.07;;;2.00;;
21416;SDS011;10869;52.238;10.716;2022-07-29T20:23:49;14.23;;;2.87;;
21416;SDS011;10869;52.238;10.716;2022-07-29T20:26:15;5.53;;;2.00;;
21416;SDS011;10869;52.238;10.716;2022-07-29T20:28:41;9.73;;;2.10;;
21416;SDS011;10869;52.238;10.716;2022-07-29T20:31:07;8.57;;;2.43;;
21416;SDS011;10869;52.238;10.716;2022-07-29T20:33:33;6.53;;;2.30;;
21416;SDS011;10869;52.238;10.716;2022-07-29T20:35:59;5.67;;;2.50;;
21416;SDS011;10869;52.238;10.716;2022-07-29T20:38:25;7.87;;;1.90;;
21416;SDS011;10869;52.238;10.716;2022-07-29T20:40:50;6.13;;;2.27;;
21416;SDS011;10869;52.238;10.716;2022-07-29T20:43:18;5.10;;;2.27;;
21416;SDS011;10869;52.238;10.716;2022-07-29T20:45:44;8.77;;;2.57;;
21416;SDS011;10869;52.238;10.716;2022-07-29T20:48:09;8.17;;;2.20;;
21416;SDS011;10869;52.238;10.716;2022-07-29T20:50:37;6.87;;;2.27;;
21416;SDS011;10869;52.238;10.716;2022-07-29T20:53:03;9.03;;;2.40;;
21416;SDS011;10869;52.238;10.716;2022-07-29T20:55:28;9.97;;;1.93;;
21416;SDS011;10869;52.238;10.716;2022-07-29T20:57:58;8.60;;;2.43;;
21416;SDS011;10869;52.238;10.716;2022-07-29T21:00:27;6.30;;;2.40;;
21416;SDS011;10869;52.238;10.716;2022-07-29T21:02:56;7.97;;;2.03;;
21416;SDS011;10869;52.238;10.716;2022-07-29T21:05:22;9.13;;;2.40;;
21416;SDS011;10869;52.238;10.716;2022-07-29T21:07:47;9.13;;;2.23;;
21416;SDS011;10869;52.238;10.716;2022-07-29T21:10:13;5.83;;;2.10;;